Ely, Nevada Weather observations

Data are for observation ending at time listed.
 Day   Time    Ave.   Ave.  Ave.  Vector   Max.   Stn.    Total    Solar   Ave.  
  of    of     Air    Rel.  Wind   Wind    Wind   Baro.  Precip.   Rad.    Soil  
Year   Day     Temp.  Hum.  Speed  Dir.    Gust   Pres.                    Temp. 
2015   (PST)    F      %     mph   deg.    mph     mb.     in.     W/m2     F   
------------------------------------------------------------------------------
  25    0:10   26.2    82    6.4   214      8.0   820.4    0.00       0    30.6
  25    0:20   25.9    81    3.0   189      5.4   820.3    0.00       0    30.5
  25    0:30   26.1    82    4.0   253      5.0   820.4    0.00       0    30.4
  25    0:40   27.7    81    2.5   234      4.4   820.3    0.00       0    30.4
  25    0:50   25.8    81    2.1   179      4.5   820.2    0.00       0    30.2
  25    1:00   26.7    82    2.9   142      5.0   820.2    0.00       0    30.2
  25    1:10   25.7    83    6.1   138      7.8   820.3    0.00       0    30.1
  25    1:20   24.4    85    5.5   143      7.0   820.4    0.00       0    30.1
  25    1:30   23.4    86    4.6   144      6.6   820.4    0.00       0    29.9
  25    1:40   22.9    87    7.1   137      8.8   820.4    0.00       0    29.9
  25    1:50   22.8    88    7.0   139      9.4   820.3    0.00       0    29.7
  25    2:00   23.2    88    6.6   144      9.8   820.3    0.00       0    29.6
  25    2:10   23.0    88    7.6   140      9.1   820.3    0.00       0    29.4
  25    2:20   24.1    87    4.7   153      7.2   820.3    0.00       0    29.4
  25    2:30   22.8    86    6.3   144      8.2   820.2    0.00       0    29.2
  25    2:40   22.4    88    5.5   153      8.4   820.1    0.00       0    29.1
  25    2:50   22.4    88    5.5   185      8.8   820.1    0.00       0    29.0
  25    3:00   23.3    89    5.1   166      6.3   820.0    0.00       0    28.9
  25    3:10   23.2    88    6.6   134      8.4   820.0    0.00       0    28.8
  25    3:20   23.7    89    5.1   154      7.5   820.0    0.00       0    28.7
  25    3:30   23.5    87    4.8   154      8.0   820.0    0.00       0    28.6
  25    3:40   22.0    88    6.0   149      7.9   819.9    0.00       0    28.5
  25    3:50   20.7    88    6.5   142      8.0   819.9    0.00       0    28.5
  25    4:00   20.3    90    5.3   142      6.4   819.8    0.00       0    28.3
  25    4:10   20.4    90    4.2   151      6.3   819.8    0.00       0    28.2
  25    4:20   20.8    90    3.3   159      5.6   819.8    0.00       0    28.0
  25    4:30   20.5    89    6.2   147      7.7   819.8    0.00       0    27.9
  25    4:40   20.9    90    6.2   153      8.0   819.8    0.00       0    27.8
  25    4:50   21.7    89    5.4   159      8.0   819.7    0.00       0    27.6
  25    5:00   20.7    89    6.4   153      8.0   819.8    0.00       0    27.6
  25    5:10   20.8    89    6.7   153      8.7   819.8    0.00       0    27.4
  25    5:20   20.6    88    5.1   174      7.7   819.7    0.00       0    27.3
  25    5:30   19.9    89    6.2   160      8.7   819.8    0.00       0    27.2
  25    5:40   19.9    90    7.3   154      9.7   819.8    0.00       0    27.0
  25    5:50   20.3    90    8.1   154     10.7   819.8    0.00       0    26.9
  25    6:00   20.8    90    7.7   159     10.6   819.9    0.00       0    26.8
  25    6:10   20.6    90    9.2   152     11.0   820.1    0.00       0    26.7
  25    6:20   20.8    90    9.4   152     11.6   820.1    0.00       0    26.6
  25    6:30   21.0    90   10.5   152     13.0   820.3    0.00       0    26.6
  25    6:40   21.1    89   10.4   148     12.5   820.4    0.00       3    26.5
  25    6:50   21.0    90    9.6   141     12.4   820.5    0.00       7    26.4
  25    7:00   21.0    90   10.0   145     13.0   820.5    0.00       7    26.4
  25    7:10   21.8    90    9.2   145     11.8   820.5    0.00       7    26.4
  25    7:20   21.9    89    7.9   148     10.8   820.6    0.00      14    26.3
  25    7:30   21.6    89    7.3   148     10.9   820.6    0.00      20    26.3
  25    7:40   22.1    90    4.3   161      6.4   820.9    0.00      20    26.3
  25    7:50   23.3    88    1.4   158      4.4   821.1    0.00     113    26.4
  25    8:00   24.1    87    3.4   181      5.2   821.1    0.00     166    26.5
  25    8:10   26.4    85    5.4   143      8.3   821.0    0.00     199    26.9
  25    8:20   28.7    81    5.1   145      7.8   821.0    0.00     228    27.7
  25    8:30   29.9    79    3.3   130      5.8   821.0    0.00     252    28.3
  25    8:40   32.2    76    1.5   132      2.6   821.1    0.00     274    28.9
  25    8:50   34.0    72    1.2   155      3.1   821.2    0.00     311    29.3
  25    9:00   34.9    72    2.2   149      3.8   821.2    0.00     342    29.6
  25    9:10   36.7    69    1.3   179      2.5   821.2    0.00     367    29.8
  25    9:20   37.9    68    2.2   163      5.3   821.1    0.00     396    30.1
  25    9:30   38.3    68    3.6   155      6.0   821.1    0.00     421    30.3
  25    9:40   39.1    67    2.7   123      4.7   821.2    0.00     445    30.8
  25    9:50   40.6    64    0.8   163      2.6   821.2    0.00     468    31.6
  25   10:00   41.3    63    0.9   305      2.5   821.2    0.00     494    32.8
  25   10:10   41.5    64    1.4   162      4.3   821.2    0.00     512    34.1
  25   10:20   43.0    60    0.3   169      2.1   821.1    0.00     523    35.4
  25   10:30   44.4    58    0.1   307      1.5   821.0    0.00     541    36.8
  25   10:40   45.4    56    0.9   245      3.7   821.0    0.00     559    38.2
  25   10:50   45.3    57    2.0   243      4.1   820.8    0.00     565    39.6
  25   11:00   46.7    55    1.2   195      4.5   820.4    0.00     578    40.8
  25   11:10   47.6    53    1.3   259      3.9   820.1    0.00     592    42.0
  25   11:20   47.5    54    2.0   244      3.4   820.0    0.00     591    43.0
  25   11:30   48.7    51    0.7   253      3.1   819.7    0.00     604    44.0
  25   11:40   48.8    51    4.1   317      7.0   819.4    0.00     606    44.7
  25   11:50   49.0    51    2.5   329      5.2   819.5    0.00     606    45.1
  25   12:00   50.1    49    4.3   307      8.5   819.3    0.00     603    45.6
  25   12:10   50.6    47    6.8   323     12.1   819.2    0.00     606    45.9
  25   12:20   51.4    45    8.5   335     12.9   818.9    0.00     598    45.9
  25   12:30   51.7    45    7.5   327     11.3   818.6    0.00     600    45.8
  25   12:40   52.6    43    9.6   327     14.9   818.6    0.00     589    45.7
  25   12:50   52.6    43   10.5   337     15.0   818.5    0.00     574    45.4
  25   13:00   52.6    43   10.1   348     14.8   818.3    0.00     561    45.1
  25   13:10   53.2    42   10.4   345     16.1   818.1    0.00     548    44.6
  25   13:20   53.3    42   12.1   345     17.5   817.9    0.00     542    44.2
  25   13:30   53.3    43   12.6   341     18.8   817.9    0.00     531    43.8
  25   13:40   53.3    43   11.4   348     18.2   817.8    0.00     515    43.6
  25   13:50   54.1    41   12.3   344     16.1   817.7    0.00     492    43.5
  25   14:00   54.6    40   13.9   338     19.1   817.5    0.00     470    43.7
  25   14:10   54.9    40   14.1   345     19.0   817.5    0.00     445    43.8
  25   14:20   55.0    40   14.6   349     20.8   817.4    0.00     430    43.7
  25   14:30   55.4    39   14.7   345     19.5   817.4    0.00     407    43.8
  25   14:40   55.7    38   14.1   346     19.8   817.5    0.00     380    43.8
  25   14:50   56.0    37   17.3   344     22.8   817.5    0.00     353    43.7
  25   15:00   56.3    36   15.3   345     20.6   817.5    0.00     326    43.5
  25   15:10   56.5    36   14.0   350     19.4   817.5    0.00     297    43.4
  25   15:20   56.6    36   12.8   348     18.7   817.5    0.00     268    43.3
  25   15:30   56.5    36   12.8   340     17.9   817.4    0.00     238    43.2
  25   15:40   56.1    37   13.7   340     20.8   817.4    0.00     208    43.0
  25   15:50   55.9    37   13.3   344     19.9   817.4    0.00     178    42.8
  25   16:00   55.5    38   12.5   347     18.4   817.4    0.00     149    42.7
  25   16:10   55.3    38   11.4   354     16.8   817.4    0.00     115    42.5
  25   16:20   54.5    39    7.9   342     11.5   817.5    0.00      80    42.3
  25   16:30   52.9    41    8.7   338     12.5   817.5    0.00      15    41.9
  25   16:40   51.3    43   10.0   327     12.6   817.6    0.00       7    41.4
  25   16:50   50.1    45    8.5   329     11.4   817.6    0.00       7    40.8
  25   17:00   48.8    47    6.4   343     10.4   817.6    0.00       7    40.3
  25   17:10   48.0    48    8.9     4     11.4   817.6    0.00       7    39.8
  25   17:20   47.7    48    7.7    11     12.1   817.7    0.00       1    39.4
  25   17:30   44.6    53    4.2   328      6.2   817.7    0.00       0    39.0
  25   17:40   42.6    57    3.2   316      7.2   817.9    0.00       0    38.4
  25   17:50   44.8    54    5.7   354      9.2   818.0    0.00       1    37.9
  25   18:00   46.3    52    9.3     7     14.0   818.1    0.00       0    37.5
  25   18:10   45.3    53    6.6   350     12.9   818.2    0.00       0    37.3
  25   18:20   42.3    58    5.3   181      9.5   818.3    0.00       0    37.1
  25   18:30   45.9    51    4.5    26     10.0   818.3    0.00       1    36.7
  25   18:40   44.9    51    3.7   110      6.1   818.4    0.00       0    36.5
  25   18:50   41.1    57    2.6   146      4.7   818.5    0.00       1    36.2
  25   19:00   40.3    59    0.8   108      2.9   818.6    0.00       0    35.9
  25   19:10   38.2    60    3.0   131      7.5   818.6    0.00       0    35.5
  25   19:20   33.4    70    4.5   133      7.5   818.5    0.00       1    35.0
  25   19:30   32.7    72    6.5   152      8.8   818.5    0.00       0    34.6
  25   19:40   32.5    73    8.2   146     10.2   818.6    0.00       1    34.2
  25   19:50   31.8    75    7.8   129     10.5   818.6    0.00       1    33.8
  25   20:00   31.3    75    6.9   130      8.7   818.7    0.00       1    33.4
  25   20:10   31.2    76    6.9   131      9.3   818.8    0.00       0    33.1
  25   20:20   30.4    77    8.5   140     10.4   818.8    0.00       0    32.8
  25   20:30   29.9    78    9.4   140     11.9   818.7    0.00       0    32.6
  25   20:40   29.9    78    7.2   129      9.1   818.7    0.00       0    32.6
  25   20:50   28.9    80    8.8   141     11.3   818.7    0.00       0    32.5
  25   21:00   29.4    80    9.3   140     10.9   818.7    0.00       0    32.4
  25   21:10   29.5    79   10.9   144     13.4   818.9    0.00       1    32.3
  25   21:20   29.7    79    9.3   144     12.1   819.0    0.00       0    32.2
  25   21:30   30.0    79   10.0   152     13.1   819.1    0.00       0    32.1
  25   21:40   30.0    78   10.8   144     13.7   819.1    0.00       0    32.0
  25   21:50   29.7    79   10.8   151     14.5   819.1    0.00       0    32.0
  25   22:00   29.8    79   12.2   153     15.2   819.2    0.00       0    31.9
  25   22:10   29.0    80   11.0   154     14.2   819.2    0.00       0    31.8
  25   22:20   28.2    82   10.4   152     15.0   819.3    0.00       0    31.8
  25   22:30   29.9    79   12.1   154     15.6   819.3    0.00       0    31.7
  25   22:40   31.2    76   12.2   160     15.3   819.3    0.00       0    31.6
  25   22:50   30.1    77    9.3   161     13.2   819.4    0.00       0    31.6
  25   23:00   28.3    80    5.9   164     10.8   819.4    0.00       0    31.5
  25   23:10   28.1    81    6.5   161     10.1   819.5    0.00       0    31.5
  25   23:20   28.3    81    6.4   165      9.4   819.4    0.00       0    31.5
  25   23:30   28.8    80    7.9   158     10.0   819.4    0.00       0    31.5
  25   23:40   28.2    82    8.9   165     13.9   819.3    0.00       0    31.4
  25   23:50   29.0    81   11.4   151     14.5   819.3    0.00       0    31.3
  26    0:00   29.9    78   10.4   151     13.4   819.2    0.00       0    31.3

Return to Ely, Nevada graphs page.


Western Regional Climate Center,wrcc@dri.edu